createdAt,value
2023-01-28T00:01:59.843Z,13.88
2023-01-28T00:04:27.840Z,12.82
2023-01-28T00:06:54.807Z,13.48
2023-01-28T00:09:21.627Z,13.70
2023-01-28T00:11:49.750Z,13.68
2023-01-28T00:14:16.661Z,13.40
2023-01-28T00:16:43.799Z,13.23
2023-01-28T00:19:11.691Z,13.52
2023-01-28T00:21:38.665Z,13.10
2023-01-28T00:24:07.107Z,13.55
2023-01-28T00:26:34.124Z,13.75
2023-01-28T00:29:02.086Z,13.63
2023-01-28T00:31:31.710Z,13.50
2023-01-28T00:34:00.893Z,14.00
2023-01-28T00:36:27.934Z,14.65
2023-01-28T00:38:57.281Z,13.75
2023-01-28T00:41:27.082Z,13.65
2023-01-28T00:43:54.365Z,14.88
2023-01-28T00:46:22.918Z,13.52
2023-01-28T00:48:51.313Z,13.63
2023-01-28T00:51:20.784Z,13.35
2023-01-28T00:53:49.696Z,13.82
2023-01-28T00:56:17.916Z,13.90
2023-01-28T00:58:46.531Z,14.15
2023-01-28T01:01:22.011Z,12.60
2023-01-28T01:03:58.531Z,13.55
2023-01-28T01:06:25.668Z,12.63
2023-01-28T01:08:52.705Z,12.93
2023-01-28T01:11:19.751Z,12.40
2023-01-28T01:13:59.009Z,12.50
2023-01-28T01:16:30.117Z,12.32
2023-01-28T01:18:57.354Z,12.75
2023-01-28T01:21:26.463Z,13.27
2023-01-28T01:23:53.942Z,13.48
2023-01-28T01:26:22.350Z,12.60
2023-01-28T01:28:51.958Z,12.82
2023-01-28T01:31:21.639Z,11.55
2023-01-28T01:33:51.535Z,12.82
2023-01-28T01:36:20.248Z,11.65
2023-01-28T01:38:52.678Z,12.00
2023-01-28T01:44:03.652Z,11.40
2023-01-28T01:46:43.805Z,11.88
2023-01-28T01:49:26.521Z,12.77
2023-01-28T01:54:26.721Z,12.50
2023-01-28T01:56:54.035Z,13.40
2023-01-28T01:59:29.202Z,14.07
2023-01-28T02:01:58.738Z,14.00
2023-01-28T02:04:37.494Z,13.57
2023-01-28T02:07:05.676Z,13.25
2023-01-28T02:09:38.664Z,14.52
2023-01-28T02:12:18.018Z,14.13
2023-01-28T02:14:56.498Z,13.70
2023-01-28T02:17:24.407Z,13.43
2023-01-28T02:20:13.628Z,13.35
2023-01-28T02:23:21.514Z,14.63
2023-01-28T02:26:16.921Z,13.77
2023-01-28T02:29:00.056Z,14.27
2023-01-28T02:31:40.869Z,14.70
2023-01-28T02:34:27.527Z,13.80
2023-01-28T02:37:09.590Z,14.23
2023-01-28T02:39:41.994Z,14.33
2023-01-28T02:42:32.202Z,13.90
2023-01-28T02:44:59.088Z,14.63
2023-01-28T02:47:47.933Z,13.55
2023-01-28T02:50:20.052Z,13.77
2023-01-28T02:53:24.043Z,13.60
2023-01-28T02:56:16.386Z,13.60
2023-01-28T02:58:56.797Z,13.02
2023-01-28T03:01:39.045Z,13.15
2023-01-28T03:04:23.103Z,13.65
2023-01-28T03:06:54.905Z,13.10
2023-01-28T03:09:27.238Z,13.20
2023-01-28T03:15:04.520Z,12.88
2023-01-28T03:17:56.980Z,13.77
2023-01-28T03:20:47.849Z,13.15
2023-01-28T03:23:41.615Z,14.60
2023-01-28T03:26:29.681Z,12.95
2023-01-28T03:29:22.228Z,13.60
2023-01-28T03:34:57.012Z,12.40
2023-01-28T03:37:24.230Z,13.23
2023-01-28T03:40:08.713Z,13.13
2023-01-28T03:42:37.000Z,13.27
2023-01-28T03:45:24.886Z,13.38
2023-01-28T03:47:53.079Z,13.93
2023-01-28T03:50:20.567Z,13.80
2023-01-28T03:53:13.503Z,13.32
2023-01-28T03:55:52.333Z,12.82
2023-01-28T03:58:27.234Z,14.02
2023-01-28T04:00:55.414Z,13.52
2023-01-28T04:03:23.548Z,14.10
2023-01-28T04:06:02.024Z,12.32
2023-01-28T04:08:55.629Z,13.18
2023-01-28T04:11:44.116Z,13.65
2023-01-28T04:17:07.477Z,13.38
2023-01-28T04:19:37.460Z,12.82
2023-01-28T04:22:10.084Z,12.23
2023-01-28T04:24:37.369Z,12.77
2023-01-28T04:27:04.891Z,12.32
2023-01-28T04:29:32.812Z,13.43
2023-01-28T04:32:15.516Z,12.38
2023-01-28T04:35:15.712Z,13.25
2023-01-28T04:37:56.711Z,12.73
2023-01-28T04:40:35.080Z,12.73
2023-01-28T04:43:10.944Z,12.30
2023-01-28T04:45:49.560Z,11.95
2023-01-28T04:48:36.614Z,12.23
2023-01-28T04:51:28.020Z,12.52
2023-01-28T04:54:18.062Z,12.50
2023-01-28T04:56:46.090Z,12.38
2023-01-28T04:59:13.857Z,14.00
2023-01-28T05:01:43.552Z,13.40
2023-01-28T05:04:11.963Z,12.73
2023-01-28T05:06:39.606Z,13.65
2023-01-28T05:09:27.374Z,14.95
2023-01-28T05:11:55.770Z,14.60
2023-01-28T05:14:24.799Z,15.35
2023-01-28T05:17:05.493Z,14.65
2023-01-28T05:19:32.901Z,14.20
2023-01-28T05:22:01.329Z,14.70
2023-01-28T05:24:33.183Z,14.80
2023-01-28T05:27:00.862Z,14.35
2023-01-28T05:29:28.809Z,14.30
2023-01-28T05:31:55.763Z,14.07
2023-01-28T05:34:22.735Z,14.38
2023-01-28T05:36:53.329Z,15.85
2023-01-28T05:39:31.625Z,14.82
2023-01-28T05:41:58.618Z,13.70
2023-01-28T05:44:26.098Z,14.68
2023-01-28T05:47:15.657Z,14.43
2023-01-28T05:49:51.618Z,13.88
2023-01-28T05:52:29.453Z,12.77
2023-01-28T05:54:57.126Z,12.48
2023-01-28T05:57:25.334Z,13.10
2023-01-28T05:59:52.222Z,14.10
2023-01-28T06:02:20.325Z,13.82
2023-01-28T06:04:54.637Z,14.57
2023-01-28T06:07:25.233Z,14.40
2023-01-28T06:09:52.293Z,14.13
2023-01-28T06:12:21.475Z,14.02
2023-01-28T06:15:07.981Z,14.15
2023-01-28T06:17:46.341Z,14.77
2023-01-28T06:20:27.227Z,14.30
2023-01-28T06:22:57.257Z,13.80
2023-01-28T06:25:26.363Z,12.80
2023-01-28T06:27:54.149Z,14.57
2023-01-28T06:30:21.195Z,15.02
2023-01-28T06:32:55.049Z,14.95
2023-01-28T06:35:22.242Z,15.07
2023-01-28T06:37:49.439Z,17.05
2023-01-28T06:40:16.695Z,15.38
2023-01-28T06:42:43.781Z,14.43
2023-01-28T06:45:10.967Z,13.55
2023-01-28T06:47:39.984Z,13.68
2023-01-28T06:50:07.506Z,14.85
2023-01-28T06:52:34.524Z,14.45
2023-01-28T06:55:01.722Z,14.35
2023-01-28T06:57:28.586Z,14.13
2023-01-28T06:59:55.550Z,14.10
2023-01-28T07:02:22.631Z,14.27
2023-01-28T07:04:50.519Z,14.07
2023-01-28T07:07:17.477Z,14.48
2023-01-28T07:09:45.831Z,14.65
2023-01-28T07:12:12.931Z,14.05
2023-01-28T07:14:39.777Z,14.13
2023-01-28T07:17:07.639Z,13.52
2023-01-28T07:19:35.509Z,13.07
2023-01-28T07:22:03.363Z,13.48
2023-01-28T07:24:30.610Z,13.70
2023-01-28T07:26:57.474Z,13.90
2023-01-28T07:29:24.301Z,14.70
2023-01-28T07:31:51.535Z,13.73
2023-01-28T07:34:18.430Z,13.05
2023-01-28T07:36:45.408Z,14.25
2023-01-28T07:39:12.524Z,14.18
2023-01-28T07:41:39.511Z,13.43
2023-01-28T07:44:08.171Z,13.65
2023-01-28T07:46:36.401Z,13.77
2023-01-28T07:49:04.317Z,14.77
2023-01-28T07:51:31.153Z,13.27
2023-01-28T07:53:58.257Z,14.23
2023-01-28T07:56:27.383Z,12.10
2023-01-28T07:58:55.301Z,14.15
2023-01-28T08:01:25.474Z,13.40
2023-01-28T08:03:52.494Z,12.95
2023-01-28T08:06:20.439Z,13.27
2023-01-28T08:08:50.705Z,13.57
2023-01-28T08:11:21.014Z,14.10
2023-01-28T08:13:51.906Z,14.10
2023-01-28T08:16:19.933Z,13.45
2023-01-28T08:18:47.811Z,14.43
2023-01-28T08:21:14.734Z,12.90
2023-01-28T08:23:41.683Z,13.10
2023-01-28T08:26:08.728Z,13.00
2023-01-28T08:28:37.682Z,13.05
2023-01-28T08:31:05.902Z,12.95
2023-01-28T08:33:33.005Z,13.00
2023-01-28T08:36:06.189Z,13.45
2023-01-28T08:38:33.345Z,13.82
2023-01-28T08:41:00.578Z,13.18
2023-01-28T08:43:28.863Z,14.02
2023-01-28T08:45:58.091Z,14.23
2023-01-28T08:48:28.186Z,13.13
2023-01-28T08:51:00.016Z,14.35
2023-01-28T08:53:31.421Z,13.63
2023-01-28T08:55:58.423Z,13.93
2023-01-28T08:58:25.523Z,13.45
2023-01-28T09:00:53.437Z,14.32
2023-01-28T09:03:21.304Z,14.10
2023-01-28T09:05:50.701Z,14.73
2023-01-28T09:08:18.680Z,13.55
2023-01-28T09:10:46.762Z,14.48
2023-01-28T09:13:16.267Z,13.65
2023-01-28T09:15:44.587Z,13.93
2023-01-28T09:18:11.595Z,15.02
2023-01-28T09:20:38.900Z,13.50
2023-01-28T09:23:06.983Z,14.55
2023-01-28T09:25:36.077Z,13.95
2023-01-28T09:28:04.313Z,15.15
2023-01-28T09:30:31.789Z,15.13
2023-01-28T09:33:00.945Z,15.40
2023-01-28T09:35:27.880Z,15.32
2023-01-28T09:37:58.215Z,15.32
2023-01-28T09:40:37.848Z,16.23
2023-01-28T09:43:34.946Z,15.32
2023-01-28T09:46:05.591Z,14.48
2023-01-28T09:48:44.661Z,15.40
2023-01-28T09:51:31.487Z,16.23
2023-01-28T09:54:06.168Z,15.88
2023-01-28T09:56:39.759Z,15.75
2023-01-28T09:59:19.517Z,15.80
2023-01-28T10:01:56.150Z,15.43
2023-01-28T10:04:38.118Z,16.52
2023-01-28T10:07:21.300Z,16.83
2023-01-28T10:10:13.685Z,16.50
2023-01-28T10:12:59.504Z,16.00
2023-01-28T10:15:50.916Z,16.98
2023-01-28T10:18:31.024Z,15.27
2023-01-28T10:21:20.907Z,15.25
2023-01-28T10:24:26.277Z,15.65
2023-01-28T10:26:53.835Z,16.25
2023-01-28T10:29:27.765Z,15.38
2023-01-28T10:32:00.504Z,15.60
2023-01-28T10:34:31.915Z,14.52
2023-01-28T10:37:01.910Z,16.75
2023-01-28T10:39:30.351Z,15.80
2023-01-28T10:41:58.970Z,16.80
2023-01-28T10:44:34.920Z,15.80
2023-01-28T10:47:12.677Z,16.27
2023-01-28T10:49:46.204Z,16.95
2023-01-28T10:52:18.512Z,16.48
2023-01-28T10:54:46.569Z,16.27
2023-01-28T10:57:18.498Z,16.77
2023-01-28T10:59:45.781Z,16.42
2023-01-28T11:02:26.177Z,15.73
2023-01-28T11:05:21.295Z,15.27
2023-01-28T11:08:06.596Z,15.55
2023-01-28T11:10:37.126Z,15.43
2023-01-28T11:13:22.935Z,14.70
2023-01-28T11:16:04.661Z,14.35
2023-01-28T11:18:40.543Z,15.45
2023-01-28T11:21:19.588Z,14.10
2023-01-28T11:24:06.429Z,13.90
2023-01-28T11:26:37.339Z,14.90
2023-01-28T11:29:05.951Z,13.88
2023-01-28T11:31:43.131Z,15.52
2023-01-28T11:34:36.771Z,13.73
2023-01-28T11:37:16.166Z,14.20
2023-01-28T11:39:46.839Z,13.57
2023-01-28T11:42:20.239Z,14.38
2023-01-28T11:44:49.868Z,14.35
2023-01-28T11:47:32.958Z,13.32
2023-01-28T11:53:16.955Z,14.27
2023-01-28T11:55:50.540Z,13.27
2023-01-28T11:58:56.817Z,14.10
2023-01-28T12:01:48.728Z,14.00
2023-01-28T12:04:21.858Z,14.10
2023-01-28T12:07:15.696Z,14.77
2023-01-28T12:09:58.224Z,14.32
2023-01-28T12:12:40.696Z,14.23
2023-01-28T12:15:37.487Z,13.43
2023-01-28T12:18:32.661Z,13.82
2023-01-28T12:21:09.300Z,14.68
2023-01-28T12:24:19.528Z,13.45
2023-01-28T12:27:21.170Z,14.48
2023-01-28T12:30:08.735Z,13.95
2023-01-28T12:33:00.314Z,13.23
2023-01-28T12:35:53.392Z,13.73
2023-01-28T12:41:12.804Z,14.30
2023-01-28T12:44:04.275Z,14.07
2023-01-28T12:46:38.997Z,15.13
2023-01-28T12:52:24.455Z,14.90
2023-01-28T12:55:22.639Z,14.63
2023-01-28T12:57:53.548Z,15.27
2023-01-28T13:00:28.596Z,14.45
2023-01-28T13:03:20.244Z,14.70
2023-01-28T13:05:55.199Z,15.02
2023-01-28T13:08:28.077Z,14.88
2023-01-28T13:10:59.676Z,15.80
2023-01-28T13:13:39.362Z,16.35
2023-01-28T13:16:10.197Z,15.00
2023-01-28T13:18:40.138Z,15.65
2023-01-28T13:21:13.037Z,14.80
2023-01-28T13:23:45.949Z,14.50
2023-01-28T13:26:23.631Z,15.15
2023-01-28T13:28:54.695Z,15.85
2023-01-28T13:31:23.847Z,15.55
2023-01-28T13:33:54.062Z,16.42
2023-01-28T13:36:42.543Z,16.15
2023-01-28T13:39:18.326Z,17.10
2023-01-28T13:41:52.609Z,15.27
2023-01-28T13:44:33.352Z,17.10
2023-01-28T13:47:35.696Z,17.42
2023-01-28T13:50:07.036Z,16.80
2023-01-28T13:52:47.322Z,15.93
2023-01-28T13:55:42.814Z,16.90
2023-01-28T13:58:49.973Z,16.08
2023-01-28T14:01:40.463Z,15.82
2023-01-28T14:04:39.434Z,14.90
2023-01-28T14:07:39.172Z,15.35
2023-01-28T14:10:35.160Z,16.00
2023-01-28T14:13:34.260Z,15.15
2023-01-28T14:16:37.661Z,16.23
2023-01-28T14:21:36.020Z,16.52
2023-01-28T14:24:05.357Z,15.65
2023-01-28T14:26:36.136Z,17.73
2023-01-28T14:29:17.854Z,28.42
2023-01-28T14:31:48.334Z,15.80
2023-01-28T14:34:32.689Z,16.10
2023-01-28T14:37:04.753Z,16.60
2023-01-28T14:39:40.765Z,16.25
2023-01-28T14:42:24.446Z,15.07
2023-01-28T14:45:24.991Z,15.60
2023-01-28T14:48:13.400Z,15.30
2023-01-28T14:51:09.527Z,16.15
2023-01-28T14:53:59.147Z,15.50
2023-01-28T14:57:01.756Z,16.48
2023-01-28T14:59:36.706Z,15.02
2023-01-28T15:02:19.525Z,16.73
2023-01-28T15:07:22.360Z,14.27
2023-01-28T15:10:17.111Z,15.18
2023-01-28T15:12:51.437Z,16.38
2023-01-28T15:15:27.825Z,16.50
2023-01-28T15:18:02.233Z,14.85
2023-01-28T15:20:29.682Z,15.02
2023-01-28T15:22:57.004Z,15.32
2023-01-28T15:25:28.495Z,16.05
2023-01-28T15:28:00.711Z,16.15
2023-01-28T15:30:31.770Z,15.25
2023-01-28T15:33:06.648Z,15.65
2023-01-28T15:35:36.171Z,15.75
2023-01-28T15:38:05.519Z,15.07
2023-01-28T15:40:46.846Z,15.63
2023-01-28T15:43:31.133Z,16.75
2023-01-28T15:46:00.128Z,16.70
2023-01-28T15:48:31.047Z,15.93
2023-01-28T15:51:05.319Z,15.88
2023-01-28T15:53:47.475Z,15.65
2023-01-28T15:56:16.617Z,15.82
2023-01-28T15:58:46.298Z,17.25
2023-01-28T16:01:18.522Z,15.85
2023-01-28T16:03:59.819Z,16.23
2023-01-28T16:06:34.684Z,14.07
2023-01-28T16:09:28.145Z,15.93
2023-01-28T16:12:07.302Z,12.48
2023-01-28T16:14:48.885Z,15.80
2023-01-28T16:17:38.599Z,17.00
2023-01-28T16:20:18.641Z,16.38
2023-01-28T16:22:46.786Z,16.40
2023-01-28T16:25:40.037Z,17.17
2023-01-28T16:28:19.867Z,17.70
2023-01-28T16:30:49.236Z,18.25
2023-01-28T16:33:22.153Z,17.60
2023-01-28T16:36:06.529Z,17.98
2023-01-28T16:38:37.927Z,18.83
2023-01-28T16:41:26.699Z,19.15
2023-01-28T16:43:55.219Z,17.83
2023-01-28T16:46:22.872Z,18.40
2023-01-28T16:48:51.724Z,17.38
2023-01-28T16:51:22.779Z,20.08
2023-01-28T16:53:50.633Z,20.05
2023-01-28T16:56:43.648Z,18.23
2023-01-28T16:59:16.516Z,17.25
2023-01-28T17:01:47.660Z,18.98
2023-01-28T17:04:18.887Z,17.85
2023-01-28T17:06:52.650Z,17.77
2023-01-28T17:09:29.892Z,17.17
2023-01-28T17:12:09.445Z,14.90
2023-01-28T17:14:39.385Z,14.20
2023-01-28T17:17:08.040Z,15.50
2023-01-28T17:19:37.275Z,15.48
2023-01-28T17:22:32.888Z,15.52
2023-01-28T17:25:03.134Z,16.27
2023-01-28T17:27:32.744Z,17.20
2023-01-28T17:30:00.154Z,21.55
2023-01-28T17:32:27.479Z,17.92
2023-01-28T17:34:54.585Z,17.25
2023-01-28T17:37:21.535Z,17.20
2023-01-28T17:39:48.523Z,16.13
2023-01-28T17:42:17.322Z,16.67
2023-01-28T17:44:46.129Z,16.23
2023-01-28T17:47:13.249Z,18.67
2023-01-28T17:49:41.704Z,17.17
2023-01-28T17:52:09.107Z,15.23
2023-01-28T17:54:38.440Z,14.95
2023-01-28T17:57:05.868Z,14.60
2023-01-28T17:59:36.214Z,14.85
2023-01-28T18:02:07.380Z,14.23
2023-01-28T18:04:40.337Z,14.98
2023-01-28T18:07:11.445Z,16.00
2023-01-28T18:09:44.125Z,15.45
2023-01-28T18:12:18.112Z,15.73
2023-01-28T18:17:44.868Z,15.50
2023-01-28T18:20:14.344Z,15.10
2023-01-28T18:22:49.334Z,15.35
2023-01-28T18:25:20.283Z,14.70
2023-01-28T18:27:54.386Z,16.05
2023-01-28T18:30:47.833Z,15.95
2023-01-28T18:33:24.419Z,15.57
2023-01-28T18:35:57.834Z,17.10
2023-01-28T18:38:30.173Z,15.93
2023-01-28T18:41:00.215Z,17.13
2023-01-28T18:43:31.338Z,16.55
2023-01-28T18:46:02.059Z,16.83
2023-01-28T18:48:30.073Z,15.80
2023-01-28T18:50:58.756Z,16.67
2023-01-28T18:53:26.281Z,17.75
2023-01-28T18:56:07.023Z,17.70
2023-01-28T18:58:37.613Z,19.20
2023-01-28T19:01:13.182Z,17.95
2023-01-28T19:03:42.903Z,18.95
2023-01-28T19:06:17.285Z,18.80
2023-01-28T19:08:46.815Z,19.70
2023-01-28T19:11:17.375Z,19.33
2023-01-28T19:13:48.398Z,19.40
2023-01-28T19:16:19.631Z,19.77
2023-01-28T19:18:56.336Z,19.35
2023-01-28T19:21:26.347Z,18.88
2023-01-28T19:24:00.860Z,18.58
2023-01-28T19:26:31.416Z,19.13
2023-01-28T19:29:09.368Z,18.90
2023-01-28T19:31:37.858Z,19.65
2023-01-28T19:34:05.659Z,19.00
2023-01-28T19:36:35.441Z,19.33
2023-01-28T19:39:08.499Z,19.20
2023-01-28T19:41:37.105Z,19.05
2023-01-28T19:44:08.362Z,19.33
2023-01-28T19:46:36.368Z,20.50
2023-01-28T19:49:10.858Z,20.67
2023-01-28T19:51:43.373Z,20.05
2023-01-28T19:54:14.685Z,19.67
2023-01-28T19:56:46.423Z,19.10
2023-01-28T19:59:16.682Z,21.13
2023-01-28T20:01:47.858Z,19.73
2023-01-28T20:04:17.047Z,21.58
2023-01-28T20:06:44.115Z,21.45
2023-01-28T20:09:20.525Z,21.27
2023-01-28T20:11:53.243Z,21.30
2023-01-28T20:16:49.402Z,22.00
2023-01-28T20:19:18.930Z,25.60
2023-01-28T20:21:47.012Z,24.15
2023-01-28T20:24:15.782Z,22.92
2023-01-28T20:26:45.069Z,24.58
2023-01-28T20:29:14.412Z,24.10
2023-01-28T20:31:42.496Z,24.65
2023-01-28T20:34:18.205Z,22.52
2023-01-28T20:36:46.379Z,23.58
2023-01-28T20:39:14.823Z,23.08
2023-01-28T20:41:41.953Z,23.90
2023-01-28T20:44:08.878Z,24.23
2023-01-28T20:46:39.070Z,24.30
2023-01-28T20:49:07.368Z,25.70
2023-01-28T20:51:39.111Z,26.48
2023-01-28T20:54:06.275Z,26.00
2023-01-28T20:56:35.561Z,24.40
2023-01-28T20:59:05.254Z,26.00
2023-01-28T21:01:35.555Z,25.63
2023-01-28T21:04:03.941Z,24.60
2023-01-28T21:06:31.712Z,26.48
2023-01-28T21:09:00.928Z,26.42
2023-01-28T21:11:29.373Z,26.63
2023-01-28T21:13:57.108Z,26.17
2023-01-28T21:16:25.219Z,26.10
2023-01-28T21:18:52.411Z,26.02
2023-01-28T21:21:25.554Z,25.95
2023-01-28T21:23:59.668Z,25.90
2023-01-28T21:26:27.781Z,24.40
2023-01-28T21:28:56.326Z,25.02
2023-01-28T21:31:26.326Z,26.35
2023-01-28T21:33:55.683Z,25.83
2023-01-28T21:36:23.576Z,24.60
2023-01-28T21:38:52.662Z,26.38
2023-01-28T21:41:19.610Z,23.60
2023-01-28T21:43:50.089Z,27.92
2023-01-28T21:46:23.524Z,24.23
2023-01-28T21:48:57.604Z,26.95
2023-01-28T21:51:45.925Z,25.65
2023-01-28T21:54:19.016Z,26.70
2023-01-28T21:56:48.033Z,26.13
2023-01-28T21:59:28.304Z,26.92
2023-01-28T22:02:01.860Z,26.90
2023-01-28T22:04:36.492Z,24.60
2023-01-28T22:07:06.611Z,24.98
2023-01-28T22:09:38.897Z,25.20
2023-01-28T22:12:08.999Z,25.67
2023-01-28T22:14:37.324Z,24.85
2023-01-28T22:17:11.364Z,24.27
2023-01-28T22:19:39.630Z,26.35
2023-01-28T22:22:07.207Z,26.60
2023-01-28T22:24:35.090Z,25.30
2023-01-28T22:27:02.043Z,25.63
2023-01-28T22:29:29.182Z,26.98
2023-01-28T22:31:56.536Z,25.98
2023-01-28T22:34:24.541Z,24.42
2023-01-28T22:36:52.474Z,24.58
2023-01-28T22:39:19.531Z,23.58
2023-01-28T22:41:47.385Z,25.05
2023-01-28T22:44:15.819Z,24.95
2023-01-28T22:46:42.899Z,24.05
2023-01-28T22:49:12.007Z,22.88
2023-01-28T22:51:40.233Z,21.13
2023-01-28T22:54:07.395Z,21.58
2023-01-28T22:56:38.455Z,20.88
2023-01-28T22:59:09.136Z,20.38
2023-01-28T23:01:37.673Z,20.92
2023-01-28T23:04:04.913Z,21.85
2023-01-28T23:06:32.365Z,21.10
2023-01-28T23:08:59.358Z,22.92
2023-01-28T23:11:27.454Z,22.42
2023-01-28T23:14:20.328Z,23.88
2023-01-28T23:17:07.662Z,24.63
2023-01-28T23:19:53.628Z,23.98
2023-01-28T23:22:42.750Z,25.67
2023-01-28T23:25:10.364Z,25.90
2023-01-28T23:27:38.382Z,27.40
2023-01-28T23:30:12.535Z,30.23
2023-01-28T23:32:43.026Z,29.08
2023-01-28T23:35:11.280Z,29.30
2023-01-28T23:37:40.248Z,29.67
2023-01-28T23:40:08.946Z,29.20
2023-01-28T23:42:36.000Z,30.35
2023-01-28T23:45:05.129Z,33.38
2023-01-28T23:47:34.708Z,32.40
2023-01-28T23:50:02.177Z,32.05
2023-01-28T23:52:30.194Z,31.50
2023-01-28T23:55:02.175Z,32.33
2023-01-28T23:57:29.100Z,37.08
2023-01-28T23:59:57.410Z,33.35
